sensor_id;sensor_type;location;lat;lon;timestamp;P1;durP1;ratioP1;P2;durP2;ratioP2
61531;SDS011;47397;48.194;11.632;2022-12-29T00:00:03;2.75;;;1.40;;
61531;SDS011;47397;48.194;11.632;2022-12-29T00:01:05;2.00;;;1.20;;
61531;SDS011;47397;48.194;11.632;2022-12-29T00:02:05;2.25;;;1.20;;
61531;SDS011;47397;48.194;11.632;2022-12-29T00:03:06;3.10;;;1.30;;
61531;SDS011;47397;48.194;11.632;2022-12-29T00:04:06;2.10;;;1.33;;
61531;SDS011;47397;48.194;11.632;2022-12-29T00:05:06;2.33;;;1.38;;
61531;SDS011;47397;48.194;11.632;2022-12-29T00:06:08;2.50;;;1.20;;
61531;SDS011;47397;48.194;11.632;2022-12-29T00:07:08;1.83;;;1.38;;
61531;SDS011;47397;48.194;11.632;2022-12-29T00:08:10;1.90;;;1.08;;
61531;SDS011;47397;48.194;11.632;2022-12-29T00:09:11;1.67;;;1.00;;
61531;SDS011;47397;48.194;11.632;2022-12-29T00:10:12;2.10;;;1.30;;
61531;SDS011;47397;48.194;11.632;2022-12-29T00:11:13;1.63;;;0.93;;
61531;SDS011;47397;48.194;11.632;2022-12-29T00:12:14;2.05;;;1.30;;
61531;SDS011;47397;48.194;11.632;2022-12-29T00:13:15;2.00;;;1.00;;
61531;SDS011;47397;48.194;11.632;2022-12-29T00:14:15;1.98;;;1.00;;
61531;SDS011;47397;48.194;11.632;2022-12-29T00:15:15;2.85;;;1.40;;
61531;SDS011;47397;48.194;11.632;2022-12-29T00:16:16;2.03;;;1.15;;
61531;SDS011;47397;48.194;11.632;2022-12-29T00:17:16;2.00;;;1.10;;
61531;SDS011;47397;48.194;11.632;2022-12-29T00:18:17;1.63;;;0.93;;
61531;SDS011;47397;48.194;11.632;2022-12-29T00:19:17;1.63;;;1.00;;
61531;SDS011;47397;48.194;11.632;2022-12-29T00:20:18;1.60;;;1.00;;
61531;SDS011;47397;48.194;11.632;2022-12-29T00:21:19;1.55;;;0.95;;
61531;SDS011;47397;48.194;11.632;2022-12-29T00:22:21;2.08;;;1.10;;
61531;SDS011;47397;48.194;11.632;2022-12-29T00:23:22;1.88;;;0.95;;
61531;SDS011;47397;48.194;11.632;2022-12-29T00:24:23;2.58;;;1.10;;
61531;SDS011;47397;48.194;11.632;2022-12-29T00:25:23;1.70;;;0.85;;
61531;SDS011;47397;48.194;11.632;2022-12-29T00:26:24;2.22;;;1.30;;
61531;SDS011;47397;48.194;11.632;2022-12-29T00:27:25;2.05;;;1.00;;
61531;SDS011;47397;48.194;11.632;2022-12-29T00:28:25;2.17;;;1.00;;
61531;SDS011;47397;48.194;11.632;2022-12-29T00:29:26;1.83;;;1.00;;
61531;SDS011;47397;48.194;11.632;2022-12-29T00:30:27;1.52;;;0.90;;
61531;SDS011;47397;48.194;11.632;2022-12-29T00:31:27;2.60;;;0.90;;
61531;SDS011;47397;48.194;11.632;2022-12-29T00:32:27;2.15;;;1.08;;
61531;SDS011;47397;48.194;11.632;2022-12-29T00:33:28;1.45;;;0.98;;
61531;SDS011;47397;48.194;11.632;2022-12-29T00:34:30;1.85;;;0.80;;
61531;SDS011;47397;48.194;11.632;2022-12-29T00:35:31;1.65;;;0.90;;
61531;SDS011;47397;48.194;11.632;2022-12-29T00:36:38;1.85;;;0.82;;
61531;SDS011;47397;48.194;11.632;2022-12-29T00:37:41;1.48;;;1.08;;
61531;SDS011;47397;48.194;11.632;2022-12-29T00:38:46;1.70;;;0.95;;
61531;SDS011;47397;48.194;11.632;2022-12-29T00:39:49;2.25;;;1.10;;
61531;SDS011;47397;48.194;11.632;2022-12-29T00:40:50;2.10;;;0.93;;
61531;SDS011;47397;48.194;11.632;2022-12-29T00:41:50;1.73;;;0.93;;
61531;SDS011;47397;48.194;11.632;2022-12-29T00:42:51;1.60;;;0.90;;
61531;SDS011;47397;48.194;11.632;2022-12-29T00:43:51;1.58;;;1.00;;
61531;SDS011;47397;48.194;11.632;2022-12-29T00:44:52;1.52;;;1.00;;
61531;SDS011;47397;48.194;11.632;2022-12-29T00:45:52;1.60;;;1.02;;
61531;SDS011;47397;48.194;11.632;2022-12-29T00:46:52;1.90;;;1.00;;
61531;SDS011;47397;48.194;11.632;2022-12-29T00:47:53;1.33;;;0.80;;
61531;SDS011;47397;48.194;11.632;2022-12-29T00:48:53;1.73;;;1.08;;
61531;SDS011;47397;48.194;11.632;2022-12-29T00:49:53;1.60;;;0.80;;
61531;SDS011;47397;48.194;11.632;2022-12-29T00:50:55;1.80;;;0.90;;
61531;SDS011;47397;48.194;11.632;2022-12-29T00:51:57;2.08;;;0.98;;
61531;SDS011;47397;48.194;11.632;2022-12-29T00:52:59;1.50;;;0.90;;
61531;SDS011;47397;48.194;11.632;2022-12-29T00:54:00;1.70;;;0.90;;
61531;SDS011;47397;48.194;11.632;2022-12-29T00:55:01;1.48;;;1.00;;
61531;SDS011;47397;48.194;11.632;2022-12-29T00:56:01;1.77;;;0.90;;
61531;SDS011;47397;48.194;11.632;2022-12-29T00:57:02;2.33;;;1.00;;
61531;SDS011;47397;48.194;11.632;2022-12-29T00:58:03;2.00;;;0.90;;
61531;SDS011;47397;48.194;11.632;2022-12-29T00:59:03;1.45;;;0.90;;
61531;SDS011;47397;48.194;11.632;2022-12-29T01:00:06;1.67;;;0.95;;
61531;SDS011;47397;48.194;11.632;2022-12-29T01:01:08;1.27;;;0.73;;
61531;SDS011;47397;48.194;11.632;2022-12-29T01:02:09;0.95;;;0.65;;
61531;SDS011;47397;48.194;11.632;2022-12-29T01:03:09;1.25;;;0.82;;
61531;SDS011;47397;48.194;11.632;2022-12-29T01:04:10;1.70;;;1.00;;
61531;SDS011;47397;48.194;11.632;2022-12-29T01:05:11;1.27;;;0.80;;
61531;SDS011;47397;48.194;11.632;2022-12-29T01:06:11;1.63;;;0.90;;
61531;SDS011;47397;48.194;11.632;2022-12-29T01:07:12;1.38;;;0.70;;
61531;SDS011;47397;48.194;11.632;2022-12-29T01:08:12;1.73;;;0.80;;
61531;SDS011;47397;48.194;11.632;2022-12-29T01:09:14;1.52;;;0.80;;
61531;SDS011;47397;48.194;11.632;2022-12-29T01:10:15;1.20;;;0.77;;
61531;SDS011;47397;48.194;11.632;2022-12-29T01:11:15;1.27;;;0.80;;
61531;SDS011;47397;48.194;11.632;2022-12-29T01:12:16;1.50;;;0.80;;
61531;SDS011;47397;48.194;11.632;2022-12-29T01:13:16;1.15;;;0.77;;
61531;SDS011;47397;48.194;11.632;2022-12-29T01:14:17;1.60;;;0.80;;
61531;SDS011;47397;48.194;11.632;2022-12-29T01:15:18;1.25;;;0.70;;
61531;SDS011;47397;48.194;11.632;2022-12-29T01:16:18;1.95;;;0.88;;
61531;SDS011;47397;48.194;11.632;2022-12-29T01:17:19;1.48;;;0.73;;
61531;SDS011;47397;48.194;11.632;2022-12-29T01:18:20;1.20;;;0.70;;
61531;SDS011;47397;48.194;11.632;2022-12-29T01:19:21;1.50;;;0.88;;
61531;SDS011;47397;48.194;11.632;2022-12-29T01:20:22;1.98;;;0.88;;
61531;SDS011;47397;48.194;11.632;2022-12-29T01:21:22;1.98;;;0.70;;
61531;SDS011;47397;48.194;11.632;2022-12-29T01:22:23;1.73;;;0.90;;
61531;SDS011;47397;48.194;11.632;2022-12-29T01:23:23;2.22;;;0.73;;
61531;SDS011;47397;48.194;11.632;2022-12-29T01:24:25;1.90;;;1.00;;
61531;SDS011;47397;48.194;11.632;2022-12-29T01:25:25;1.13;;;0.70;;
61531;SDS011;47397;48.194;11.632;2022-12-29T01:26:25;1.42;;;0.90;;
61531;SDS011;47397;48.194;11.632;2022-12-29T01:27:26;1.35;;;0.82;;
61531;SDS011;47397;48.194;11.632;2022-12-29T01:28:26;1.48;;;0.90;;
61531;SDS011;47397;48.194;11.632;2022-12-29T01:29:27;1.63;;;1.00;;
61531;SDS011;47397;48.194;11.632;2022-12-29T01:30:27;1.60;;;0.93;;
61531;SDS011;47397;48.194;11.632;2022-12-29T01:31:28;1.85;;;0.80;;
61531;SDS011;47397;48.194;11.632;2022-12-29T01:32:28;1.80;;;0.90;;
61531;SDS011;47397;48.194;11.632;2022-12-29T01:33:28;1.70;;;0.90;;
61531;SDS011;47397;48.194;11.632;2022-12-29T01:34:30;2.63;;;0.80;;
61531;SDS011;47397;48.194;11.632;2022-12-29T01:35:30;1.30;;;0.70;;
61531;SDS011;47397;48.194;11.632;2022-12-29T01:36:31;1.45;;;0.90;;
61531;SDS011;47397;48.194;11.632;2022-12-29T01:37:31;1.02;;;0.70;;
61531;SDS011;47397;48.194;11.632;2022-12-29T01:38:32;1.30;;;0.88;;
61531;SDS011;47397;48.194;11.632;2022-12-29T01:39:34;1.33;;;0.77;;
61531;SDS011;47397;48.194;11.632;2022-12-29T01:40:42;1.33;;;0.73;;
61531;SDS011;47397;48.194;11.632;2022-12-29T01:41:43;2.80;;;0.80;;
61531;SDS011;47397;48.194;11.632;2022-12-29T01:42:44;1.00;;;0.70;;
61531;SDS011;47397;48.194;11.632;2022-12-29T01:43:46;1.35;;;0.85;;
61531;SDS011;47397;48.194;11.632;2022-12-29T01:44:49;1.70;;;0.90;;
61531;SDS011;47397;48.194;11.632;2022-12-29T01:45:52;1.67;;;0.80;;
61531;SDS011;47397;48.194;11.632;2022-12-29T01:46:54;1.70;;;0.88;;
61531;SDS011;47397;48.194;11.632;2022-12-29T01:47:55;1.45;;;0.82;;
61531;SDS011;47397;48.194;11.632;2022-12-29T01:49:00;1.73;;;0.90;;
61531;SDS011;47397;48.194;11.632;2022-12-29T01:50:08;1.50;;;0.77;;
61531;SDS011;47397;48.194;11.632;2022-12-29T01:51:11;1.88;;;0.70;;
61531;SDS011;47397;48.194;11.632;2022-12-29T01:52:12;1.17;;;0.70;;
61531;SDS011;47397;48.194;11.632;2022-12-29T01:53:13;1.58;;;0.80;;
61531;SDS011;47397;48.194;11.632;2022-12-29T01:54:19;1.55;;;0.80;;
61531;SDS011;47397;48.194;11.632;2022-12-29T01:55:26;1.55;;;0.80;;
61531;SDS011;47397;48.194;11.632;2022-12-29T01:56:28;1.33;;;0.70;;
61531;SDS011;47397;48.194;11.632;2022-12-29T01:57:29;1.95;;;0.80;;
61531;SDS011;47397;48.194;11.632;2022-12-29T01:58:34;1.42;;;0.85;;
61531;SDS011;47397;48.194;11.632;2022-12-29T01:59:39;1.23;;;0.70;;
61531;SDS011;47397;48.194;11.632;2022-12-29T02:00:43;1.80;;;0.80;;
61531;SDS011;47397;48.194;11.632;2022-12-29T02:01:44;1.73;;;0.77;;
61531;SDS011;47397;48.194;11.632;2022-12-29T02:02:45;0.95;;;0.70;;
61531;SDS011;47397;48.194;11.632;2022-12-29T02:03:48;1.40;;;0.80;;
61531;SDS011;47397;48.194;11.632;2022-12-29T02:04:50;1.35;;;0.70;;
61531;SDS011;47397;48.194;11.632;2022-12-29T02:05:54;1.42;;;0.80;;
61531;SDS011;47397;48.194;11.632;2022-12-29T02:07:00;1.48;;;0.80;;
61531;SDS011;47397;48.194;11.632;2022-12-29T02:08:02;1.58;;;0.80;;
61531;SDS011;47397;48.194;11.632;2022-12-29T02:09:03;1.33;;;0.80;;
61531;SDS011;47397;48.194;11.632;2022-12-29T02:10:04;1.27;;;0.80;;
61531;SDS011;47397;48.194;11.632;2022-12-29T02:11:07;1.05;;;0.75;;
61531;SDS011;47397;48.194;11.632;2022-12-29T02:12:07;0.90;;;0.63;;
61531;SDS011;47397;48.194;11.632;2022-12-29T02:13:08;1.20;;;0.68;;
61531;SDS011;47397;48.194;11.632;2022-12-29T02:14:08;1.10;;;0.65;;
61531;SDS011;47397;48.194;11.632;2022-12-29T02:15:10;1.20;;;0.77;;
61531;SDS011;47397;48.194;11.632;2022-12-29T02:16:14;1.48;;;0.70;;
61531;SDS011;47397;48.194;11.632;2022-12-29T02:17:28;1.48;;;0.82;;
61531;SDS011;47397;48.194;11.632;2022-12-29T02:18:41;3.40;;;0.80;;
61531;SDS011;47397;48.194;11.632;2022-12-29T02:19:58;1.45;;;0.60;;
61531;SDS011;47397;48.194;11.632;2022-12-29T02:22:54;1.25;;;0.70;;
61531;SDS011;47397;48.194;11.632;2022-12-29T02:24:13;1.77;;;0.75;;
61531;SDS011;47397;48.194;11.632;2022-12-29T02:25:47;1.92;;;0.70;;
61531;SDS011;47397;48.194;11.632;2022-12-29T02:28:37;1.60;;;0.70;;
61531;SDS011;47397;48.194;11.632;2022-12-29T02:29:56;1.42;;;0.85;;
61531;SDS011;47397;48.194;11.632;2022-12-29T02:31:06;1.92;;;0.80;;
61531;SDS011;47397;48.194;11.632;2022-12-29T02:32:18;1.20;;;0.80;;
61531;SDS011;47397;48.194;11.632;2022-12-29T02:33:30;1.45;;;0.70;;
61531;SDS011;47397;48.194;11.632;2022-12-29T02:34:42;1.08;;;0.52;;
61531;SDS011;47397;48.194;11.632;2022-12-29T02:35:51;1.33;;;0.70;;
61531;SDS011;47397;48.194;11.632;2022-12-29T02:36:59;1.80;;;0.82;;
61531;SDS011;47397;48.194;11.632;2022-12-29T02:38:05;1.27;;;0.70;;
61531;SDS011;47397;48.194;11.632;2022-12-29T02:39:15;1.40;;;0.70;;
61531;SDS011;47397;48.194;11.632;2022-12-29T02:40:22;1.50;;;0.73;;
61531;SDS011;47397;48.194;11.632;2022-12-29T02:41:29;1.52;;;0.80;;
61531;SDS011;47397;48.194;11.632;2022-12-29T02:42:33;0.50;;;0.50;;
61531;SDS011;47397;48.194;11.632;2022-12-29T02:43:37;1.13;;;0.60;;
61531;SDS011;47397;48.194;11.632;2022-12-29T02:44:47;0.93;;;0.60;;
61531;SDS011;47397;48.194;11.632;2022-12-29T02:45:56;1.25;;;0.73;;
61531;SDS011;47397;48.194;11.632;2022-12-29T02:47:03;1.17;;;0.73;;
61531;SDS011;47397;48.194;11.632;2022-12-29T02:48:10;1.25;;;0.70;;
61531;SDS011;47397;48.194;11.632;2022-12-29T02:49:19;1.10;;;0.55;;
61531;SDS011;47397;48.194;11.632;2022-12-29T02:50:25;0.95;;;0.70;;
61531;SDS011;47397;48.194;11.632;2022-12-29T02:51:29;1.23;;;0.60;;
61531;SDS011;47397;48.194;11.632;2022-12-29T02:52:35;0.80;;;0.50;;
61531;SDS011;47397;48.194;11.632;2022-12-29T02:53:40;1.20;;;0.70;;
61531;SDS011;47397;48.194;11.632;2022-12-29T02:54:41;0.88;;;0.60;;
61531;SDS011;47397;48.194;11.632;2022-12-29T02:55:47;1.20;;;0.70;;
61531;SDS011;47397;48.194;11.632;2022-12-29T02:56:48;2.05;;;0.70;;
61531;SDS011;47397;48.194;11.632;2022-12-29T02:57:48;1.27;;;0.70;;
61531;SDS011;47397;48.194;11.632;2022-12-29T02:58:49;1.45;;;0.70;;
61531;SDS011;47397;48.194;11.632;2022-12-29T02:59:50;1.25;;;0.70;;
61531;SDS011;47397;48.194;11.632;2022-12-29T03:00:56;1.48;;;0.68;;
61531;SDS011;47397;48.194;11.632;2022-12-29T03:02:12;1.67;;;0.77;;
61531;SDS011;47397;48.194;11.632;2022-12-29T03:03:23;0.90;;;0.70;;
61531;SDS011;47397;48.194;11.632;2022-12-29T03:05:41;2.05;;;0.90;;
61531;SDS011;47397;48.194;11.632;2022-12-29T03:06:58;1.35;;;0.60;;
61531;SDS011;47397;48.194;11.632;2022-12-29T03:08:06;0.98;;;0.60;;
61531;SDS011;47397;48.194;11.632;2022-12-29T03:09:20;1.48;;;0.75;;
61531;SDS011;47397;48.194;11.632;2022-12-29T03:10:30;1.02;;;0.63;;
61531;SDS011;47397;48.194;11.632;2022-12-29T03:11:37;1.58;;;0.68;;
61531;SDS011;47397;48.194;11.632;2022-12-29T03:12:53;0.93;;;0.60;;
61531;SDS011;47397;48.194;11.632;2022-12-29T03:14:02;2.13;;;0.75;;
61531;SDS011;47397;48.194;11.632;2022-12-29T03:15:07;0.75;;;0.50;;
61531;SDS011;47397;48.194;11.632;2022-12-29T03:16:14;1.13;;;0.65;;
61531;SDS011;47397;48.194;11.632;2022-12-29T03:17:24;1.70;;;0.68;;
61531;SDS011;47397;48.194;11.632;2022-12-29T03:18:33;1.52;;;0.90;;
61531;SDS011;47397;48.194;11.632;2022-12-29T03:19:40;1.13;;;0.70;;
61531;SDS011;47397;48.194;11.632;2022-12-29T03:20:47;1.17;;;0.60;;
61531;SDS011;47397;48.194;11.632;2022-12-29T03:21:54;1.00;;;0.70;;
61531;SDS011;47397;48.194;11.632;2022-12-29T03:22:58;0.88;;;0.60;;
61531;SDS011;47397;48.194;11.632;2022-12-29T03:24:01;1.25;;;0.80;;
61531;SDS011;47397;48.194;11.632;2022-12-29T03:25:04;1.05;;;0.60;;
61531;SDS011;47397;48.194;11.632;2022-12-29T03:26:08;0.85;;;0.60;;
61531;SDS011;47397;48.194;11.632;2022-12-29T03:27:13;0.95;;;0.60;;
61531;SDS011;47397;48.194;11.632;2022-12-29T03:28:18;1.08;;;0.70;;
61531;SDS011;47397;48.194;11.632;2022-12-29T03:29:22;0.95;;;0.60;;
61531;SDS011;47397;48.194;11.632;2022-12-29T03:30:23;1.05;;;0.60;;
61531;SDS011;47397;48.194;11.632;2022-12-29T03:31:26;0.82;;;0.50;;
61531;SDS011;47397;48.194;11.632;2022-12-29T03:32:28;1.27;;;0.70;;
61531;SDS011;47397;48.194;11.632;2022-12-29T03:33:33;1.00;;;0.60;;
61531;SDS011;47397;48.194;11.632;2022-12-29T03:34:37;1.25;;;0.77;;
61531;SDS011;47397;48.194;11.632;2022-12-29T03:35:38;0.95;;;0.60;;
61531;SDS011;47397;48.194;11.632;2022-12-29T03:36:43;1.10;;;0.60;;
61531;SDS011;47397;48.194;11.632;2022-12-29T03:37:49;1.33;;;0.68;;
61531;SDS011;47397;48.194;11.632;2022-12-29T03:38:57;1.00;;;0.65;;
61531;SDS011;47397;48.194;11.632;2022-12-29T03:40:02;0.82;;;0.60;;
61531;SDS011;47397;48.194;11.632;2022-12-29T03:41:04;1.27;;;0.65;;
61531;SDS011;47397;48.194;11.632;2022-12-29T03:42:09;1.05;;;0.60;;
61531;SDS011;47397;48.194;11.632;2022-12-29T03:43:12;1.55;;;0.70;;
61531;SDS011;47397;48.194;11.632;2022-12-29T03:44:14;1.05;;;0.70;;
61531;SDS011;47397;48.194;11.632;2022-12-29T03:45:14;1.50;;;0.90;;
61531;SDS011;47397;48.194;11.632;2022-12-29T03:46:15;1.23;;;0.63;;
61531;SDS011;47397;48.194;11.632;2022-12-29T03:47:15;0.90;;;0.50;;
61531;SDS011;47397;48.194;11.632;2022-12-29T03:48:17;1.98;;;0.80;;
61531;SDS011;47397;48.194;11.632;2022-12-29T03:49:18;0.93;;;0.60;;
61531;SDS011;47397;48.194;11.632;2022-12-29T03:50:18;1.33;;;0.70;;
61531;SDS011;47397;48.194;11.632;2022-12-29T03:51:19;1.10;;;0.70;;
61531;SDS011;47397;48.194;11.632;2022-12-29T03:52:19;1.13;;;0.63;;
61531;SDS011;47397;48.194;11.632;2022-12-29T03:53:19;1.13;;;0.60;;
61531;SDS011;47397;48.194;11.632;2022-12-29T03:54:20;0.90;;;0.63;;
61531;SDS011;47397;48.194;11.632;2022-12-29T03:55:21;0.77;;;0.60;;
61531;SDS011;47397;48.194;11.632;2022-12-29T03:56:27;0.77;;;0.50;;
61531;SDS011;47397;48.194;11.632;2022-12-29T03:57:28;0.98;;;0.70;;
61531;SDS011;47397;48.194;11.632;2022-12-29T03:58:28;0.98;;;0.60;;
61531;SDS011;47397;48.194;11.632;2022-12-29T03:59:29;0.70;;;0.55;;
61531;SDS011;47397;48.194;11.632;2022-12-29T04:00:29;1.27;;;0.63;;
61531;SDS011;47397;48.194;11.632;2022-12-29T04:01:30;1.63;;;0.63;;
61531;SDS011;47397;48.194;11.632;2022-12-29T04:02:31;1.10;;;0.60;;
61531;SDS011;47397;48.194;11.632;2022-12-29T04:03:32;0.98;;;0.60;;
61531;SDS011;47397;48.194;11.632;2022-12-29T04:04:33;0.85;;;0.60;;
61531;SDS011;47397;48.194;11.632;2022-12-29T04:05:33;0.65;;;0.60;;
61531;SDS011;47397;48.194;11.632;2022-12-29T04:06:34;0.90;;;0.50;;
61531;SDS011;47397;48.194;11.632;2022-12-29T04:07:34;1.17;;;0.65;;
61531;SDS011;47397;48.194;11.632;2022-12-29T04:08:34;0.95;;;0.50;;
61531;SDS011;47397;48.194;11.632;2022-12-29T04:09:35;1.15;;;0.52;;
61531;SDS011;47397;48.194;11.632;2022-12-29T04:10:35;0.95;;;0.60;;
61531;SDS011;47397;48.194;11.632;2022-12-29T04:11:36;2.20;;;0.70;;
61531;SDS011;47397;48.194;11.632;2022-12-29T04:12:36;1.10;;;0.60;;
61531;SDS011;47397;48.194;11.632;2022-12-29T04:13:36;1.20;;;0.70;;
61531;SDS011;47397;48.194;11.632;2022-12-29T04:14:37;0.82;;;0.57;;
61531;SDS011;47397;48.194;11.632;2022-12-29T04:15:37;0.73;;;0.50;;
61531;SDS011;47397;48.194;11.632;2022-12-29T04:16:38;0.77;;;0.50;;
61531;SDS011;47397;48.194;11.632;2022-12-29T04:17:38;0.70;;;0.55;;
61531;SDS011;47397;48.194;11.632;2022-12-29T04:18:40;0.85;;;0.55;;
61531;SDS011;47397;48.194;11.632;2022-12-29T04:19:40;0.90;;;0.65;;
61531;SDS011;47397;48.194;11.632;2022-12-29T04:20:41;1.15;;;0.70;;
61531;SDS011;47397;48.194;11.632;2022-12-29T04:21:42;1.02;;;0.63;;
61531;SDS011;47397;48.194;11.632;2022-12-29T04:22:42;0.55;;;0.50;;
61531;SDS011;47397;48.194;11.632;2022-12-29T04:23:42;0.93;;;0.60;;
61531;SDS011;47397;48.194;11.632;2022-12-29T04:24:43;1.35;;;0.60;;
61531;SDS011;47397;48.194;11.632;2022-12-29T04:25:44;1.38;;;0.65;;
61531;SDS011;47397;48.194;11.632;2022-12-29T04:26:45;1.42;;;0.50;;
61531;SDS011;47397;48.194;11.632;2022-12-29T04:27:46;0.95;;;0.70;;
61531;SDS011;47397;48.194;11.632;2022-12-29T04:28:46;0.77;;;0.60;;
61531;SDS011;47397;48.194;11.632;2022-12-29T04:29:46;1.05;;;0.65;;
61531;SDS011;47397;48.194;11.632;2022-12-29T04:30:47;1.10;;;0.68;;
61531;SDS011;47397;48.194;11.632;2022-12-29T04:31:47;1.25;;;0.60;;
61531;SDS011;47397;48.194;11.632;2022-12-29T04:32:48;0.77;;;0.50;;
61531;SDS011;47397;48.194;11.632;2022-12-29T04:33:50;0.90;;;0.52;;
61531;SDS011;47397;48.194;11.632;2022-12-29T04:34:50;0.75;;;0.50;;
61531;SDS011;47397;48.194;11.632;2022-12-29T04:35:51;1.00;;;0.70;;
61531;SDS011;47397;48.194;11.632;2022-12-29T04:36:51;2.22;;;0.80;;
61531;SDS011;47397;48.194;11.632;2022-12-29T04:37:52;1.00;;;0.60;;
61531;SDS011;47397;48.194;11.632;2022-12-29T04:38:52;0.88;;;0.45;;
61531;SDS011;47397;48.194;11.632;2022-12-29T04:39:53;1.20;;;0.60;;
61531;SDS011;47397;48.194;11.632;2022-12-29T04:40:53;1.10;;;0.60;;
61531;SDS011;47397;48.194;11.632;2022-12-29T04:41:54;1.30;;;0.73;;
61531;SDS011;47397;48.194;11.632;2022-12-29T04:42:54;2.38;;;0.65;;
61531;SDS011;47397;48.194;11.632;2022-12-29T04:43:54;1.40;;;0.70;;
61531;SDS011;47397;48.194;11.632;2022-12-29T04:44:55;0.70;;;0.55;;
61531;SDS011;47397;48.194;11.632;2022-12-29T04:45:55;1.67;;;0.70;;
61531;SDS011;47397;48.194;11.632;2022-12-29T04:46:56;1.05;;;0.70;;
61531;SDS011;47397;48.194;11.632;2022-12-29T04:47:56;1.05;;;0.68;;
61531;SDS011;47397;48.194;11.632;2022-12-29T04:48:58;1.08;;;0.60;;
61531;SDS011;47397;48.194;11.632;2022-12-29T04:49:58;0.60;;;0.60;;
61531;SDS011;47397;48.194;11.632;2022-12-29T04:50:59;1.08;;;0.63;;
61531;SDS011;47397;48.194;11.632;2022-12-29T04:51:59;1.05;;;0.70;;
61531;SDS011;47397;48.194;11.632;2022-12-29T04:52:59;1.67;;;0.60;;
61531;SDS011;47397;48.194;11.632;2022-12-29T04:54:00;1.15;;;0.60;;
61531;SDS011;47397;48.194;11.632;2022-12-29T04:55:00;0.77;;;0.60;;
61531;SDS011;47397;48.194;11.632;2022-12-29T04:56:01;1.00;;;0.60;;
61531;SDS011;47397;48.194;11.632;2022-12-29T04:57:01;1.30;;;0.70;;
61531;SDS011;47397;48.194;11.632;2022-12-29T04:58:02;0.77;;;0.55;;
61531;SDS011;47397;48.194;11.632;2022-12-29T04:59:02;0.80;;;0.52;;
61531;SDS011;47397;48.194;11.632;2022-12-29T05:00:03;1.80;;;0.70;;
61531;SDS011;47397;48.194;11.632;2022-12-29T05:01:04;1.30;;;0.80;;
61531;SDS011;47397;48.194;11.632;2022-12-29T05:02:05;0.85;;;0.70;;
61531;SDS011;47397;48.194;11.632;2022-12-29T05:03:05;1.05;;;0.73;;
61531;SDS011;47397;48.194;11.632;2022-12-29T05:04:07;1.08;;;0.55;;
61531;SDS011;47397;48.194;11.632;2022-12-29T05:05:08;1.30;;;0.70;;
61531;SDS011;47397;48.194;11.632;2022-12-29T05:06:08;1.60;;;0.68;;
61531;SDS011;47397;48.194;11.632;2022-12-29T05:07:09;1.58;;;0.60;;
61531;SDS011;47397;48.194;11.632;2022-12-29T05:08:09;1.50;;;0.60;;
61531;SDS011;47397;48.194;11.632;2022-12-29T05:09:10;0.80;;;0.60;;
61531;SDS011;47397;48.194;11.632;2022-12-29T05:10:10;0.68;;;0.60;;
61531;SDS011;47397;48.194;11.632;2022-12-29T05:11:11;1.25;;;0.82;;
61531;SDS011;47397;48.194;11.632;2022-12-29T05:12:11;1.30;;;0.60;;
61531;SDS011;47397;48.194;11.632;2022-12-29T05:13:12;1.00;;;0.73;;
61531;SDS011;47397;48.194;11.632;2022-12-29T05:14:12;0.85;;;0.60;;
61531;SDS011;47397;48.194;11.632;2022-12-29T05:15:13;0.88;;;0.60;;
61531;SDS011;47397;48.194;11.632;2022-12-29T05:16:13;1.30;;;0.77;;
61531;SDS011;47397;48.194;11.632;2022-12-29T05:17:14;1.48;;;0.80;;
61531;SDS011;47397;48.194;11.632;2022-12-29T05:18:14;1.13;;;0.80;;
61531;SDS011;47397;48.194;11.632;2022-12-29T05:19:16;1.20;;;0.77;;
61531;SDS011;47397;48.194;11.632;2022-12-29T05:20:16;1.23;;;0.70;;
61531;SDS011;47397;48.194;11.632;2022-12-29T05:21:17;1.60;;;0.80;;
61531;SDS011;47397;48.194;11.632;2022-12-29T05:22:17;1.05;;;0.65;;
61531;SDS011;47397;48.194;11.632;2022-12-29T05:23:18;1.92;;;0.77;;
61531;SDS011;47397;48.194;11.632;2022-12-29T05:24:18;1.50;;;0.70;;
61531;SDS011;47397;48.194;11.632;2022-12-29T05:25:19;0.77;;;0.60;;
61531;SDS011;47397;48.194;11.632;2022-12-29T05:26:19;1.10;;;0.60;;
61531;SDS011;47397;48.194;11.632;2022-12-29T05:27:19;0.68;;;0.50;;
61531;SDS011;47397;48.194;11.632;2022-12-29T05:28:20;1.00;;;0.63;;
61531;SDS011;47397;48.194;11.632;2022-12-29T05:29:20;0.80;;;0.50;;
61531;SDS011;47397;48.194;11.632;2022-12-29T05:30:21;1.15;;;0.60;;
61531;SDS011;47397;48.194;11.632;2022-12-29T05:31:21;1.20;;;0.70;;
61531;SDS011;47397;48.194;11.632;2022-12-29T05:32:22;0.80;;;0.57;;
61531;SDS011;47397;48.194;11.632;2022-12-29T05:33:22;1.27;;;0.70;;
61531;SDS011;47397;48.194;11.632;2022-12-29T05:34:24;0.98;;;0.60;;
61531;SDS011;47397;48.194;11.632;2022-12-29T05:35:24;2.03;;;0.70;;
61531;SDS011;47397;48.194;11.632;2022-12-29T05:36:25;0.75;;;0.52;;
61531;SDS011;47397;48.194;11.632;2022-12-29T05:37:25;1.77;;;0.80;;
61531;SDS011;47397;48.194;11.632;2022-12-29T05:38:26;1.33;;;0.70;;
61531;SDS011;47397;48.194;11.632;2022-12-29T05:39:26;0.80;;;0.60;;
61531;SDS011;47397;48.194;11.632;2022-12-29T05:40:26;2.17;;;0.80;;
61531;SDS011;47397;48.194;11.632;2022-12-29T05:41:27;0.73;;;0.52;;
61531;SDS011;47397;48.194;11.632;2022-12-29T05:42:27;1.23;;;0.70;;
61531;SDS011;47397;48.194;11.632;2022-12-29T05:43:28;1.02;;;0.80;;
61531;SDS011;47397;48.194;11.632;2022-12-29T05:44:28;1.83;;;0.70;;
61531;SDS011;47397;48.194;11.632;2022-12-29T05:45:28;1.38;;;0.80;;
61531;SDS011;47397;48.194;11.632;2022-12-29T05:46:29;2.22;;;0.70;;
61531;SDS011;47397;48.194;11.632;2022-12-29T05:47:29;0.70;;;0.60;;
61531;SDS011;47397;48.194;11.632;2022-12-29T05:48:30;0.80;;;0.70;;
61531;SDS011;47397;48.194;11.632;2022-12-29T05:49:32;1.23;;;0.73;;
61531;SDS011;47397;48.194;11.632;2022-12-29T05:50:32;1.23;;;0.70;;
61531;SDS011;47397;48.194;11.632;2022-12-29T05:51:33;1.20;;;0.68;;
61531;SDS011;47397;48.194;11.632;2022-12-29T05:52:33;1.13;;;0.77;;
61531;SDS011;47397;48.194;11.632;2022-12-29T05:53:33;1.15;;;0.60;;
61531;SDS011;47397;48.194;11.632;2022-12-29T05:54:34;1.20;;;0.65;;
61531;SDS011;47397;48.194;11.632;2022-12-29T05:55:34;0.82;;;0.55;;
61531;SDS011;47397;48.194;11.632;2022-12-29T05:56:35;1.58;;;0.70;;
61531;SDS011;47397;48.194;11.632;2022-12-29T05:57:35;1.10;;;0.70;;
61531;SDS011;47397;48.194;11.632;2022-12-29T05:58:35;1.30;;;0.70;;
61531;SDS011;47397;48.194;11.632;2022-12-29T05:59:36;0.68;;;0.60;;
61531;SDS011;47397;48.194;11.632;2022-12-29T06:00:36;2.22;;;0.90;;
61531;SDS011;47397;48.194;11.632;2022-12-29T06:01:37;1.52;;;0.70;;
61531;SDS011;47397;48.194;11.632;2022-12-29T06:02:37;0.98;;;0.60;;
61531;SDS011;47397;48.194;11.632;2022-12-29T06:03:37;1.60;;;0.70;;
61531;SDS011;47397;48.194;11.632;2022-12-29T06:04:39;1.40;;;0.80;;
61531;SDS011;47397;48.194;11.632;2022-12-29T06:05:39;1.15;;;0.70;;
61531;SDS011;47397;48.194;11.632;2022-12-29T06:06:40;1.00;;;0.60;;
61531;SDS011;47397;48.194;11.632;2022-12-29T06:07:40;0.82;;;0.60;;
61531;SDS011;47397;48.194;11.632;2022-12-29T06:08:41;1.58;;;0.70;;
61531;SDS011;47397;48.194;11.632;2022-12-29T06:09:41;1.17;;;0.70;;
61531;SDS011;47397;48.194;11.632;2022-12-29T06:10:41;1.23;;;0.70;;
61531;SDS011;47397;48.194;11.632;2022-12-29T06:11:42;1.20;;;0.70;;
61531;SDS011;47397;48.194;11.632;2022-12-29T06:12:42;1.33;;;0.77;;
61531;SDS011;47397;48.194;11.632;2022-12-29T06:13:43;1.90;;;0.90;;